createdAt,value
2018-12-10T00:01:36.130Z,3.43
2018-12-10T00:04:04.920Z,3.83
2018-12-10T00:06:33.751Z,4.57
2018-12-10T00:09:02.613Z,3.87
2018-12-10T00:11:31.402Z,4.03
2018-12-10T00:14:00.211Z,4.77
2018-12-10T00:16:28.999Z,4.07
2018-12-10T00:18:57.805Z,4.07
2018-12-10T00:21:26.618Z,4.37
2018-12-10T00:23:55.455Z,3.97
2018-12-10T00:26:24.308Z,3.33
2018-12-10T00:28:53.107Z,3.77
2018-12-10T00:31:21.961Z,3.93
2018-12-10T00:33:51.399Z,4.10
2018-12-10T00:36:20.191Z,4.40
2018-12-10T00:38:49.003Z,3.73
2018-12-10T00:41:17.831Z,3.57
2018-12-10T00:43:46.914Z,3.83
2018-12-10T00:46:16.530Z,3.67
2018-12-10T00:48:45.392Z,3.63
2018-12-10T00:51:14.221Z,3.50
2018-12-10T00:53:43.059Z,2.77
2018-12-10T00:56:12.496Z,3.37
2018-12-10T00:58:41.312Z,3.33
2018-12-10T01:01:10.130Z,3.67
2018-12-10T01:03:38.931Z,3.23
2018-12-10T01:06:07.732Z,3.33
2018-12-10T01:08:39.462Z,3.10
2018-12-10T01:11:08.276Z,2.73
2018-12-10T01:13:37.158Z,2.87
2018-12-10T01:16:05.904Z,2.97
2018-12-10T01:18:34.681Z,3.70
2018-12-10T01:21:03.478Z,2.73
2018-12-10T01:23:32.268Z,2.50
2018-12-10T01:26:02.224Z,3.17
2018-12-10T01:28:31.014Z,3.63
2018-12-10T01:30:59.842Z,3.70
2018-12-10T01:33:28.637Z,3.97
2018-12-10T01:35:57.479Z,3.30
2018-12-10T01:38:26.285Z,3.20
2018-12-10T01:40:55.095Z,3.13
2018-12-10T01:43:23.967Z,2.93
2018-12-10T01:45:52.780Z,2.73
2018-12-10T01:48:21.623Z,3.00
2018-12-10T01:50:50.422Z,3.03
2018-12-10T01:53:19.222Z,3.07
2018-12-10T01:55:48.060Z,3.20
2018-12-10T01:58:17.500Z,3.43
2018-12-10T02:00:47.578Z,2.73
2018-12-10T02:03:16.508Z,2.77
2018-12-10T02:05:46.239Z,2.90
2018-12-10T02:08:16.006Z,3.33
2018-12-10T02:10:45.972Z,2.77
2018-12-10T02:13:14.783Z,2.90
2018-12-10T02:15:43.575Z,2.63
2018-12-10T02:18:12.378Z,4.10
2018-12-10T02:20:41.179Z,3.03
2018-12-10T02:23:09.999Z,2.93
2018-12-10T02:25:38.794Z,3.13
2018-12-10T02:28:07.671Z,3.23
2018-12-10T02:30:37.075Z,2.73
2018-12-10T02:33:05.871Z,2.93
2018-12-10T02:35:34.672Z,3.33
2018-12-10T02:38:03.484Z,2.90
2018-12-10T02:40:32.288Z,3.60
2018-12-10T02:43:01.329Z,2.77
2018-12-10T02:45:30.120Z,3.40
2018-12-10T02:47:59.010Z,2.53
2018-12-10T02:50:27.780Z,2.97
2018-12-10T02:52:56.598Z,3.20
2018-12-10T02:55:25.387Z,2.57
2018-12-10T02:57:54.198Z,3.17
2018-12-10T03:00:23.097Z,2.83
2018-12-10T03:02:51.901Z,2.13
2018-12-10T03:05:20.697Z,2.47
2018-12-10T03:07:49.506Z,2.47
2018-12-10T03:10:18.291Z,2.10
2018-12-10T03:12:47.108Z,2.60
2018-12-10T03:15:15.986Z,2.47
2018-12-10T03:17:44.781Z,3.10
2018-12-10T03:20:13.587Z,2.83
2018-12-10T03:22:43.137Z,3.13
2018-12-10T03:25:12.010Z,2.83
2018-12-10T03:27:40.825Z,2.70
2018-12-10T03:30:10.437Z,2.53
2018-12-10T03:32:39.272Z,3.20
2018-12-10T03:35:08.085Z,2.87
2018-12-10T03:37:37.280Z,2.40
2018-12-10T03:40:05.759Z,2.77
2018-12-10T03:42:34.566Z,2.67
2018-12-10T03:45:03.368Z,2.20
2018-12-10T03:47:32.154Z,2.93
2018-12-10T03:50:00.956Z,2.93
2018-12-10T03:52:29.760Z,2.57
2018-12-10T03:54:58.598Z,2.00
2018-12-10T03:57:27.427Z,2.33
2018-12-10T03:59:56.634Z,2.40
2018-12-10T04:02:25.439Z,2.87
2018-12-10T04:04:54.293Z,3.00
2018-12-10T04:07:23.153Z,2.30
2018-12-10T04:09:51.952Z,2.60
2018-12-10T04:12:21.001Z,2.43
2018-12-10T04:14:49.836Z,3.17
2018-12-10T04:17:18.615Z,2.90
2018-12-10T04:19:47.411Z,3.57
2018-12-10T04:22:16.250Z,2.60
2018-12-10T04:24:45.826Z,2.83
2018-12-10T04:27:13.863Z,2.23
2018-12-10T04:29:42.678Z,3.10
2018-12-10T04:32:11.499Z,2.70
2018-12-10T04:34:40.312Z,2.77
2018-12-10T04:37:09.143Z,2.83
2018-12-10T04:39:37.972Z,3.50
2018-12-10T04:42:06.797Z,3.23
2018-12-10T04:44:35.607Z,3.60
2018-12-10T04:47:04.564Z,2.47
2018-12-10T04:49:33.383Z,2.80
2018-12-10T04:52:02.206Z,3.90
2018-12-10T04:54:31.041Z,3.27
2018-12-10T04:56:59.856Z,3.00
2018-12-10T04:59:28.679Z,3.10
2018-12-10T05:01:58.115Z,3.23
2018-12-10T05:04:27.551Z,3.10
2018-12-10T05:06:56.358Z,3.40
2018-12-10T05:09:25.168Z,3.53
2018-12-10T05:11:53.972Z,3.07
2018-12-10T05:14:22.836Z,3.77
2018-12-10T05:16:51.637Z,3.43
2018-12-10T05:19:20.499Z,3.30
2018-12-10T05:21:49.352Z,2.67
2018-12-10T05:24:18.161Z,3.97
2018-12-10T05:26:47.020Z,2.73
2018-12-10T05:29:15.985Z,3.20
2018-12-10T05:31:44.863Z,2.80
2018-12-10T05:34:13.675Z,2.67
2018-12-10T05:36:42.496Z,2.53
2018-12-10T05:39:11.307Z,3.17
2018-12-10T05:41:40.115Z,2.40
2018-12-10T05:44:10.063Z,2.10
2018-12-10T05:46:38.997Z,2.60
2018-12-10T05:49:24.128Z,2.07
2018-12-10T05:51:53.094Z,2.43
2018-12-10T05:54:22.033Z,2.13
2018-12-10T05:56:51.227Z,2.53
2018-12-10T05:59:20.151Z,2.03
2018-12-10T06:01:49.063Z,2.13
2018-12-10T06:04:18.003Z,2.27
2018-12-10T06:06:46.928Z,2.60
2018-12-10T06:09:15.852Z,2.10
2018-12-10T06:11:45.320Z,2.73
2018-12-10T06:14:14.242Z,2.30
2018-12-10T06:16:43.164Z,1.70
2018-12-10T06:19:12.586Z,2.47
2018-12-10T06:21:41.482Z,2.73
2018-12-10T06:24:10.636Z,2.60
2018-12-10T06:26:39.525Z,2.10
2018-12-10T06:29:08.420Z,1.90
2018-12-10T06:31:37.361Z,2.43
2018-12-10T06:34:06.301Z,2.60
2018-12-10T06:36:35.963Z,2.13
2018-12-10T06:39:08.617Z,2.80
2018-12-10T06:41:37.588Z,2.60
2018-12-10T06:44:06.487Z,2.03
2018-12-10T06:46:35.414Z,1.80
2018-12-10T06:49:04.406Z,2.10
2018-12-10T06:51:33.374Z,2.20
2018-12-10T06:54:02.172Z,2.03
2018-12-10T06:56:31.100Z,1.40
2018-12-10T06:59:00.119Z,6.40
2018-12-10T07:01:29.451Z,6.10
2018-12-10T07:03:58.362Z,2.67
2018-12-10T07:06:27.269Z,1.97
2018-12-10T07:08:56.241Z,2.23
2018-12-10T07:11:25.171Z,2.07
2018-12-10T07:13:56.170Z,1.97
2018-12-10T07:16:25.131Z,2.00
2018-12-10T07:18:54.584Z,1.63
2018-12-10T07:21:23.517Z,1.73
2018-12-10T07:23:52.444Z,2.20
2018-12-10T07:26:21.319Z,1.97
2018-12-10T07:28:50.229Z,2.73
2018-12-10T07:31:19.166Z,2.00
2018-12-10T07:33:48.078Z,1.90
2018-12-10T07:36:17.035Z,1.90
2018-12-10T07:38:46.074Z,1.73
2018-12-10T07:41:15.796Z,1.80
2018-12-10T07:43:44.727Z,2.00
2018-12-10T07:46:13.662Z,2.20
2018-12-10T07:48:49.052Z,5.13
2018-12-10T07:51:18.551Z,2.83
2018-12-10T07:53:47.463Z,2.70
2018-12-10T07:56:17.158Z,2.50
2018-12-10T07:58:46.174Z,2.20
2018-12-10T08:01:15.116Z,1.97
2018-12-10T08:03:44.058Z,2.47
2018-12-10T08:06:13.004Z,2.00
2018-12-10T08:08:41.916Z,1.83
2018-12-10T08:11:10.891Z,2.07
2018-12-10T08:13:39.819Z,2.13
2018-12-10T08:16:08.807Z,2.33
2018-12-10T08:18:37.740Z,2.00
2018-12-10T08:21:06.679Z,2.67
2018-12-10T08:23:35.865Z,2.20
2018-12-10T08:26:04.836Z,1.87
2018-12-10T08:28:33.748Z,2.47
2018-12-10T08:31:03.605Z,1.93
2018-12-10T08:33:31.588Z,2.30
2018-12-10T08:36:00.537Z,2.20
2018-12-10T08:38:29.472Z,1.83
2018-12-10T08:40:58.425Z,2.53
2018-12-10T08:43:27.356Z,2.03
2018-12-10T08:45:56.216Z,2.40
2018-12-10T08:48:25.048Z,2.03
2018-12-10T08:50:53.931Z,1.97
2018-12-10T08:53:22.844Z,2.57
2018-12-10T08:55:51.668Z,1.97
2018-12-10T08:58:20.523Z,2.67
2018-12-10T09:00:49.355Z,2.97
2018-12-10T09:03:18.179Z,2.03
2018-12-10T09:05:47.187Z,2.07
2018-12-10T09:08:16.855Z,2.23
2018-12-10T09:10:45.687Z,2.50
2018-12-10T09:13:14.506Z,2.10
2018-12-10T09:15:43.322Z,1.57
2018-12-10T09:18:12.166Z,2.43
2018-12-10T09:20:40.974Z,2.00
2018-12-10T09:23:09.800Z,1.77
2018-12-10T09:25:38.671Z,1.40
2018-12-10T09:28:07.795Z,2.20
2018-12-10T09:30:36.668Z,2.30
2018-12-10T09:33:05.490Z,1.90
2018-12-10T09:35:34.791Z,2.53
2018-12-10T09:38:03.630Z,1.73
2018-12-10T09:40:32.472Z,2.60
2018-12-10T09:43:01.299Z,2.13
2018-12-10T09:45:30.159Z,1.20
2018-12-10T09:47:58.938Z,2.20
2018-12-10T09:50:27.795Z,1.63
2018-12-10T09:52:56.724Z,1.77
2018-12-10T09:55:25.551Z,1.97
2018-12-10T09:57:54.487Z,1.83
2018-12-10T10:00:23.400Z,2.07
2018-12-10T10:02:52.243Z,1.90
2018-12-10T10:05:21.120Z,2.30
2018-12-10T10:07:49.985Z,2.97
2018-12-10T10:10:18.872Z,3.50
2018-12-10T10:12:47.751Z,2.13
2018-12-10T10:15:16.642Z,2.73
2018-12-10T10:17:47.275Z,2.83
2018-12-10T10:20:17.437Z,2.73
2018-12-10T10:22:46.468Z,2.30
2018-12-10T10:25:21.462Z,3.17
2018-12-10T10:27:50.450Z,2.80
2018-12-10T10:30:19.351Z,2.43
2018-12-10T10:32:56.643Z,2.27
2018-12-10T10:35:34.793Z,2.67
2018-12-10T10:38:03.691Z,2.03
2018-12-10T10:40:32.580Z,3.07
2018-12-10T10:43:01.476Z,2.07
2018-12-10T10:45:34.743Z,2.00
2018-12-10T10:48:01.350Z,2.40
2018-12-10T10:50:30.233Z,2.27
2018-12-10T10:52:59.173Z,1.93
2018-12-10T10:55:28.083Z,2.27
2018-12-10T10:57:56.985Z,2.73
2018-12-10T11:00:31.285Z,2.10
2018-12-10T11:03:06.168Z,2.23
2018-12-10T11:05:35.098Z,2.33
2018-12-10T11:08:03.898Z,2.37
2018-12-10T11:10:33.400Z,2.20
2018-12-10T11:13:03.292Z,4.07
2018-12-10T11:15:32.102Z,2.60
2018-12-10T11:18:00.955Z,2.60
2018-12-10T11:20:29.891Z,2.03
2018-12-10T11:22:58.712Z,1.80
2018-12-10T11:25:27.523Z,2.13
2018-12-10T11:27:56.355Z,1.77
2018-12-10T11:30:25.724Z,1.93
2018-12-10T11:32:54.544Z,2.03
2018-12-10T11:35:23.414Z,1.60
2018-12-10T11:37:52.539Z,1.80
2018-12-10T11:40:21.392Z,2.10
2018-12-10T11:42:50.208Z,1.40
2018-12-10T11:45:19.002Z,1.60
2018-12-10T11:47:47.917Z,1.47
2018-12-10T11:50:16.780Z,2.03
2018-12-10T11:52:45.483Z,1.90
2018-12-10T11:55:14.314Z,1.57
2018-12-10T11:57:43.129Z,1.70
2018-12-10T12:00:11.920Z,1.70
2018-12-10T12:02:40.716Z,2.60
2018-12-10T12:05:09.504Z,1.90
2018-12-10T12:07:38.302Z,1.77
2018-12-10T12:10:08.344Z,1.90
2018-12-10T12:12:38.600Z,1.93
2018-12-10T12:15:07.391Z,1.63
2018-12-10T12:17:36.248Z,1.90
2018-12-10T12:20:06.943Z,2.43
2018-12-10T12:22:35.741Z,1.57
2018-12-10T12:25:04.591Z,2.60
2018-12-10T12:27:33.398Z,2.57
2018-12-10T12:30:03.093Z,2.17
2018-12-10T12:32:31.882Z,2.90
2018-12-10T12:35:00.688Z,2.73
2018-12-10T12:37:30.203Z,4.13
2018-12-10T12:39:59.020Z,5.50
2018-12-10T12:42:27.856Z,2.30
2018-12-10T12:44:56.744Z,2.40
2018-12-10T12:47:26.291Z,2.63
2018-12-10T12:49:55.139Z,2.77
2018-12-10T12:52:23.982Z,2.17
2018-12-10T12:54:52.801Z,2.30
2018-12-10T12:57:28.105Z,2.77
2018-12-10T12:59:56.927Z,2.70
2018-12-10T13:02:25.732Z,2.77
2018-12-10T13:04:54.546Z,2.30
2018-12-10T13:07:23.400Z,2.30
2018-12-10T13:09:52.224Z,2.67
2018-12-10T13:12:21.096Z,2.70
2018-12-10T13:14:49.871Z,2.47
2018-12-10T13:17:18.760Z,2.20
2018-12-10T13:19:47.531Z,3.00
2018-12-10T13:22:16.364Z,2.50
2018-12-10T13:24:45.247Z,2.10
2018-12-10T13:27:15.736Z,2.33
2018-12-10T13:29:44.544Z,2.30
2018-12-10T13:32:13.328Z,2.37
2018-12-10T13:34:43.465Z,2.57
2018-12-10T13:37:12.541Z,2.63
2018-12-10T13:39:41.328Z,2.20
2018-12-10T13:42:10.155Z,2.50
2018-12-10T13:44:38.935Z,2.37
2018-12-10T13:47:08.820Z,2.77
2018-12-10T13:49:38.867Z,2.23
2018-12-10T13:52:09.185Z,2.13
2018-12-10T13:54:36.401Z,2.00
2018-12-10T13:57:05.849Z,2.13
2018-12-10T13:59:34.703Z,3.10
2018-12-10T14:02:04.537Z,2.33
2018-12-10T14:04:37.597Z,2.07
2018-12-10T14:07:06.394Z,2.30
2018-12-10T14:09:35.188Z,1.93
2018-12-10T14:12:04.431Z,2.47
2018-12-10T14:14:33.265Z,2.23
2018-12-10T14:17:08.706Z,2.73
2018-12-10T14:19:37.512Z,2.60
2018-12-10T14:22:06.324Z,1.97
2018-12-10T14:24:35.165Z,3.10
2018-12-10T14:27:03.933Z,2.23
2018-12-10T14:29:32.760Z,1.90
2018-12-10T14:32:01.537Z,2.17
2018-12-10T14:34:30.329Z,2.33
2018-12-10T14:36:59.168Z,2.27
2018-12-10T14:39:28.038Z,2.87
2018-12-10T14:41:56.852Z,2.50
2018-12-10T14:44:25.672Z,2.17
2018-12-10T14:46:54.489Z,2.70
2018-12-10T14:49:23.344Z,2.93
2018-12-10T14:51:52.157Z,2.20
2018-12-10T14:54:20.947Z,2.53
2018-12-10T14:56:49.750Z,2.30
2018-12-10T14:59:18.568Z,2.53
2018-12-10T15:01:47.371Z,2.90
2018-12-10T15:04:16.204Z,2.33
2018-12-10T15:06:45.071Z,2.60
2018-12-10T15:09:13.961Z,2.47
2018-12-10T15:11:42.778Z,2.27
2018-12-10T15:14:11.587Z,1.70
2018-12-10T15:16:41.074Z,2.47
2018-12-10T15:19:09.896Z,2.07
2018-12-10T15:21:38.680Z,2.47
2018-12-10T15:24:07.498Z,2.13
2018-12-10T15:26:38.736Z,4.10
2018-12-10T15:29:07.771Z,2.30
2018-12-10T15:31:36.608Z,2.23
2018-12-10T15:34:05.430Z,2.97
2018-12-10T15:36:34.271Z,2.00
2018-12-10T15:39:03.892Z,3.00
2018-12-10T15:41:32.724Z,2.70
2018-12-10T15:44:01.540Z,2.73
2018-12-10T15:46:30.371Z,2.70
2018-12-10T15:48:59.194Z,4.63
2018-12-10T15:51:28.004Z,2.70
2018-12-10T15:53:56.863Z,2.57
2018-12-10T15:56:25.685Z,2.60
2018-12-10T15:58:54.499Z,2.63
2018-12-10T16:01:23.364Z,3.57
2018-12-10T16:03:52.180Z,2.57
2018-12-10T16:06:20.995Z,2.20
2018-12-10T16:08:49.863Z,2.27
2018-12-10T16:11:18.664Z,2.37
2018-12-10T16:13:47.462Z,2.00
2018-12-10T16:16:16.260Z,2.40
2018-12-10T16:18:45.080Z,2.47
2018-12-10T16:21:13.943Z,2.20
2018-12-10T16:23:42.730Z,2.50
2018-12-10T16:26:11.570Z,2.80
2018-12-10T16:28:40.375Z,2.80
2018-12-10T16:31:09.208Z,2.17
2018-12-10T16:33:38.015Z,2.73
2018-12-10T16:36:06.807Z,3.53
2018-12-10T16:38:35.654Z,4.77
2018-12-10T16:41:04.540Z,4.30
2018-12-10T16:43:33.332Z,2.80
2018-12-10T16:46:02.146Z,4.93
2018-12-10T16:48:30.955Z,2.90
2018-12-10T16:50:59.775Z,3.70
2018-12-10T16:53:28.575Z,2.57
2018-12-10T16:55:57.373Z,2.43
2018-12-10T16:58:26.289Z,2.50
2018-12-10T17:00:55.100Z,3.10
2018-12-10T17:03:23.996Z,3.20
2018-12-10T17:05:56.479Z,2.77
2018-12-10T17:08:25.294Z,2.83
2018-12-10T17:10:54.119Z,2.93
2018-12-10T17:13:23.112Z,2.87
2018-12-10T17:15:52.327Z,2.60
2018-12-10T17:18:39.941Z,2.90
2018-12-10T17:28:05.195Z,5.67
2018-12-10T17:30:33.985Z,4.90
2018-12-10T17:33:03.343Z,3.50
2018-12-10T17:35:32.134Z,3.87
2018-12-10T17:38:00.968Z,2.60
2018-12-10T17:40:29.828Z,3.00
2018-12-10T17:42:58.634Z,3.20
2018-12-10T17:45:27.436Z,3.00
2018-12-10T17:47:56.253Z,3.70
2018-12-10T17:50:25.087Z,4.10
2018-12-10T17:52:53.865Z,3.03
2018-12-10T17:55:22.731Z,3.63
2018-12-10T17:57:51.564Z,3.80
2018-12-10T18:00:20.354Z,2.83
2018-12-10T18:02:49.234Z,3.23
2018-12-10T18:05:18.031Z,4.20
2018-12-10T18:07:47.101Z,3.20
2018-12-10T18:10:15.823Z,3.60
2018-12-10T18:12:44.703Z,4.43
2018-12-10T18:15:13.878Z,3.97
2018-12-10T18:17:42.656Z,3.80
2018-12-10T18:20:12.343Z,3.50
2018-12-10T18:22:41.143Z,4.30
2018-12-10T18:25:11.561Z,3.73
2018-12-10T18:27:40.672Z,4.00
2018-12-10T18:30:11.296Z,3.13
2018-12-10T18:32:40.273Z,3.77
2018-12-10T18:35:10.351Z,3.63
2018-12-10T18:37:39.168Z,3.67
2018-12-10T18:40:11.677Z,3.70
2018-12-10T18:42:41.645Z,3.70
2018-12-10T18:45:14.208Z,5.77
2018-12-10T18:47:50.490Z,3.97
2018-12-10T18:50:19.371Z,3.80
2018-12-10T18:52:48.210Z,3.53
2018-12-10T18:55:17.036Z,5.10
2018-12-10T18:57:45.906Z,4.27
2018-12-10T19:00:14.950Z,4.60
2018-12-10T19:02:44.247Z,3.87
2018-12-10T19:05:13.077Z,3.63
2018-12-10T19:07:41.896Z,4.57
2018-12-10T19:10:10.710Z,3.73
2018-12-10T19:12:39.511Z,3.50
2018-12-10T19:15:09.636Z,3.83
2018-12-10T19:17:39.083Z,4.50
2018-12-10T19:20:13.577Z,4.27
2018-12-10T19:22:37.981Z,4.17
2018-12-10T19:25:06.850Z,4.77
2018-12-10T19:30:10.644Z,3.07
2018-12-10T19:32:39.462Z,3.90
2018-12-10T19:35:14.522Z,4.43
2018-12-10T19:37:43.350Z,3.43
2018-12-10T19:40:12.135Z,5.03
2018-12-10T19:42:40.925Z,6.67
2018-12-10T19:45:09.791Z,4.67
2018-12-10T19:47:38.604Z,3.90
2018-12-10T19:50:08.145Z,5.23
2018-12-10T19:52:36.987Z,4.30
2018-12-10T19:55:06.446Z,3.83
2018-12-10T19:57:35.347Z,4.33
2018-12-10T20:00:04.713Z,5.10
2018-12-10T20:02:33.532Z,4.20
2018-12-10T20:05:02.329Z,3.87
2018-12-10T20:07:31.111Z,4.50
2018-12-10T20:09:59.904Z,3.70
2018-12-10T20:12:28.710Z,5.07
2018-12-10T20:14:57.502Z,3.60
2018-12-10T20:17:26.330Z,3.83
2018-12-10T20:19:55.792Z,4.07
2018-12-10T20:22:24.584Z,4.03
2018-12-10T20:24:53.388Z,3.67
2018-12-10T20:27:22.254Z,4.03
2018-12-10T20:29:51.068Z,4.27
2018-12-10T20:32:21.064Z,5.23
2018-12-10T20:34:49.985Z,5.17
2018-12-10T20:37:18.775Z,4.23
2018-12-10T20:39:47.561Z,4.03
2018-12-10T20:42:16.367Z,4.47
2018-12-10T20:44:45.192Z,4.43
2018-12-10T20:47:13.988Z,3.73
2018-12-10T20:49:42.796Z,4.40
2018-12-10T20:52:13.474Z,3.83
2018-12-10T20:54:42.863Z,3.60
2018-12-10T20:57:11.662Z,3.97
2018-12-10T20:59:40.458Z,3.83
2018-12-10T21:02:09.551Z,3.53
2018-12-10T21:04:42.079Z,3.53
2018-12-10T21:07:22.434Z,3.63
2018-12-10T21:09:51.209Z,4.00
2018-12-10T21:12:20.016Z,4.23
2018-12-10T21:14:52.050Z,3.83
2018-12-10T21:17:20.944Z,4.93
2018-12-10T21:19:49.740Z,4.73
2018-12-10T21:22:22.032Z,4.10
2018-12-10T21:24:51.613Z,4.23
2018-12-10T21:27:20.426Z,2.67
2018-12-10T21:29:50.110Z,4.60
2018-12-10T21:32:18.965Z,3.47
2018-12-10T21:34:48.443Z,3.47
2018-12-10T21:37:18.117Z,3.50
2018-12-10T21:39:47.315Z,2.77
2018-12-10T21:42:16.124Z,3.43
2018-12-10T21:44:45.000Z,8.20
2018-12-10T21:47:13.794Z,12.37
2018-12-10T21:49:42.570Z,4.60
2018-12-10T21:52:11.359Z,7.53
2018-12-10T21:54:40.164Z,4.30
2018-12-10T21:57:08.995Z,3.90
2018-12-10T21:59:37.795Z,3.50
2018-12-10T22:02:06.600Z,4.27
2018-12-10T22:04:35.426Z,4.27
2018-12-10T22:07:05.107Z,4.20
2018-12-10T22:09:33.974Z,3.80
2018-12-10T22:12:02.797Z,3.63
2018-12-10T22:14:31.586Z,4.00
2018-12-10T22:17:01.263Z,3.80
2018-12-10T22:19:30.071Z,4.77
2018-12-10T22:21:58.927Z,4.87
2018-12-10T22:24:28.351Z,6.60
2018-12-10T22:26:57.149Z,5.50
2018-12-10T22:29:25.957Z,4.07
2018-12-10T22:31:54.803Z,4.93
2018-12-10T22:34:23.678Z,5.00
2018-12-10T22:36:52.464Z,6.13
2018-12-10T22:39:22.241Z,5.33
2018-12-10T22:41:50.557Z,4.97
2018-12-10T22:44:19.394Z,4.57
2018-12-10T22:46:48.179Z,4.07
2018-12-10T22:49:16.963Z,5.17
2018-12-10T22:51:45.768Z,4.83
2018-12-10T22:54:15.276Z,4.20
2018-12-10T22:56:44.109Z,3.77
2018-12-10T22:59:13.545Z,4.57
2018-12-10T23:01:42.356Z,5.03
2018-12-10T23:04:11.184Z,3.80
2018-12-10T23:06:40.019Z,3.97
2018-12-10T23:09:08.874Z,5.27
2018-12-10T23:11:37.713Z,4.30
2018-12-10T23:14:06.561Z,4.43
2018-12-10T23:16:36.419Z,4.07
2018-12-10T23:19:05.300Z,3.93
2018-12-10T23:21:34.975Z,4.23
2018-12-10T23:24:03.896Z,4.80
2018-12-10T23:26:32.680Z,4.00
2018-12-10T23:29:01.527Z,3.90
2018-12-10T23:31:30.346Z,5.23
2018-12-10T23:33:59.156Z,4.30
2018-12-10T23:36:27.986Z,3.60
2018-12-10T23:38:56.804Z,4.77
2018-12-10T23:41:25.615Z,4.00
2018-12-10T23:43:55.043Z,3.13
2018-12-10T23:46:23.883Z,3.70
2018-12-10T23:48:52.678Z,3.40
2018-12-10T23:51:21.628Z,4.07
2018-12-10T23:53:50.497Z,3.53
2018-12-10T23:56:19.395Z,3.40
2018-12-10T23:58:48.235Z,2.87
